createdAt,value
2019-03-03T00:46:41.741Z,10.70
2019-03-03T00:49:29.183Z,10.70
2019-03-03T00:52:01.977Z,10.60
2019-03-03T00:54:33.636Z,10.50
2019-03-03T00:57:09.383Z,10.40
2019-03-03T00:59:54.771Z,10.40
2019-03-03T01:02:49.869Z,10.40
2019-03-03T01:05:52.157Z,10.40
2019-03-03T01:15:31.385Z,10.20
2019-03-03T01:18:25.549Z,10.10
2019-03-03T01:21:41.195Z,10.10
2019-03-03T01:24:33.375Z,10.10
2019-03-03T01:27:03.053Z,10.00
2019-03-03T01:29:34.417Z,10.00
2019-03-03T01:32:08.411Z,10.00
2019-03-03T01:34:38.040Z,10.00
2019-03-03T01:37:08.723Z,9.90
2019-03-03T01:39:39.273Z,10.00
2019-03-03T01:42:08.810Z,9.90
2019-03-03T01:44:38.419Z,9.90
2019-03-03T01:47:13.676Z,9.90
2019-03-03T01:49:43.985Z,9.90
2019-03-03T01:52:21.364Z,9.90
2019-03-03T02:07:39.532Z,10.00
2019-03-03T02:10:20.836Z,10.00
2019-03-03T02:13:08.294Z,10.10
2019-03-03T02:16:01.699Z,10.10
2019-03-03T02:18:43.237Z,10.10
2019-03-03T02:21:28.399Z,10.10
2019-03-03T02:24:13.666Z,10.10
2019-03-03T02:27:17.960Z,10.10
2019-03-03T02:29:42.692Z,10.10
2019-03-03T02:32:56.735Z,10.00
2019-03-03T02:35:49.040Z,10.10
2019-03-03T02:38:32.264Z,10.10
2019-03-03T02:41:28.575Z,10.10
2019-03-03T02:43:57.232Z,10.00
2019-03-03T02:49:47.691Z,10.10
2019-03-03T02:52:24.357Z,10.00
2019-03-03T02:55:00.488Z,10.00
2019-03-03T02:57:35.136Z,10.00
2019-03-03T03:00:23.702Z,10.00
2019-03-03T03:03:07.457Z,10.00
2019-03-03T03:05:53.661Z,10.00
2019-03-03T03:08:36.617Z,10.00
2019-03-03T03:11:23.917Z,9.90
2019-03-03T03:14:03.837Z,9.90
2019-03-03T03:16:50.615Z,9.90
2019-03-03T03:19:43.598Z,9.90
2019-03-03T03:22:34.002Z,9.90
2019-03-03T03:25:15.723Z,9.90
2019-03-03T03:28:14.955Z,9.90
2019-03-03T03:31:27.327Z,9.90
2019-03-03T03:34:10.378Z,9.90
2019-03-03T03:36:41.456Z,9.90
2019-03-03T03:39:12.725Z,9.90
2019-03-03T03:41:46.924Z,9.90
2019-03-03T03:44:28.210Z,9.90
2019-03-03T03:47:02.160Z,9.90
2019-03-03T03:49:40.076Z,9.80
2019-03-03T03:52:23.229Z,9.90
2019-03-03T03:55:09.523Z,9.90
2019-03-03T03:58:01.033Z,9.90
2019-03-03T04:00:46.185Z,9.80
2019-03-03T04:03:35.026Z,9.80
2019-03-03T04:36:58.353Z,9.90
2019-03-03T04:38:39.108Z,10.00
2019-03-03T04:45:10.737Z,10.00
2019-03-03T05:15:04.235Z,10.10
2019-03-03T07:50:22.835Z,10.20
2019-03-03T08:36:24.039Z,10.40
2019-03-03T09:14:43.390Z,10.60
2019-03-03T09:16:31.015Z,10.60
2019-03-03T09:19:14.614Z,10.60
2019-03-03T09:21:54.300Z,10.70
2019-03-03T09:24:28.026Z,10.70
2019-03-03T09:27:07.998Z,10.60
2019-03-03T09:29:50.751Z,10.60
2019-03-03T09:32:30.541Z,10.70
2019-03-03T09:35:01.814Z,10.70
2019-03-03T09:37:48.632Z,10.70
2019-03-03T09:40:25.527Z,10.70
2019-03-03T09:43:02.187Z,10.70
2019-03-03T09:45:45.298Z,10.70
2019-03-03T09:48:17.676Z,10.80
2019-03-03T09:51:01.432Z,10.80
2019-03-03T09:53:35.317Z,10.90
2019-03-03T09:56:15.175Z,10.90
2019-03-03T09:59:02.107Z,11.00
2019-03-03T10:01:45.624Z,11.00
2019-03-03T10:04:22.619Z,11.10
2019-03-03T10:07:30.259Z,11.10
2019-03-03T10:13:46.437Z,11.10
2019-03-03T10:16:17.507Z,11.10
2019-03-03T10:18:54.425Z,11.20
2019-03-03T10:21:43.691Z,11.20
2019-03-03T10:24:24.607Z,11.20
2019-03-03T10:26:55.686Z,11.30
2019-03-03T10:29:37.976Z,11.30
2019-03-03T10:35:27.122Z,11.30
2019-03-03T10:38:09.202Z,11.40
2019-03-03T10:40:48.983Z,11.40
2019-03-03T10:43:20.069Z,11.40
2019-03-03T10:49:07.646Z,11.50
2019-03-03T10:51:45.442Z,11.50
2019-03-03T10:54:32.574Z,11.50
2019-03-03T10:57:08.628Z,11.60
2019-03-03T10:59:55.744Z,11.60
2019-03-03T11:02:28.242Z,11.60
2019-03-03T11:05:26.995Z,11.60
2019-03-03T11:08:07.291Z,11.70
2019-03-03T11:11:07.585Z,11.70
2019-03-03T11:13:55.206Z,11.70
2019-03-03T11:16:33.667Z,11.70
2019-03-03T11:19:05.229Z,11.70
2019-03-03T11:21:54.050Z,11.70
2019-03-03T11:24:35.709Z,11.70
2019-03-03T11:27:06.886Z,11.70
2019-03-03T11:29:39.719Z,11.70
2019-03-03T11:32:27.144Z,11.70
2019-03-03T11:35:14.371Z,11.70
2019-03-03T11:37:59.328Z,11.70
2019-03-03T11:40:47.117Z,11.70
2019-03-03T11:43:18.295Z,11.70
2019-03-03T11:45:57.908Z,11.70
2019-03-03T11:48:45.157Z,11.60
2019-03-03T11:51:32.181Z,11.60
2019-03-03T11:54:06.139Z,11.60
2019-03-03T11:56:48.934Z,11.60
2019-03-03T11:59:23.057Z,11.60
2019-03-03T12:02:10.316Z,11.60
2019-03-03T12:04:41.334Z,11.60
2019-03-03T12:07:12.317Z,11.60
2019-03-03T12:09:43.269Z,11.60
2019-03-03T12:12:19.362Z,11.60
2019-03-03T12:14:50.759Z,11.60
2019-03-03T12:17:36.566Z,11.50
2019-03-03T12:20:11.966Z,11.60
2019-03-03T12:22:43.103Z,11.50
2019-03-03T12:25:22.231Z,11.50
2019-03-03T12:27:53.179Z,11.50
2019-03-03T12:30:24.150Z,11.50
2019-03-03T12:32:58.511Z,11.50
2019-03-03T12:35:35.625Z,11.50
2019-03-03T12:38:06.579Z,11.50
2019-03-03T12:40:46.290Z,11.50
2019-03-03T12:43:22.889Z,11.50
2019-03-03T12:45:59.629Z,11.50
2019-03-03T12:48:36.447Z,11.50
2019-03-03T12:51:16.046Z,11.60
2019-03-03T12:54:03.257Z,11.50
2019-03-03T12:56:36.936Z,11.50
2019-03-03T12:59:07.994Z,11.50
2019-03-03T13:01:42.043Z,11.50
2019-03-03T13:04:15.816Z,11.60
2019-03-03T13:07:04.640Z,11.50
2019-03-03T13:09:44.857Z,11.50
2019-03-03T13:12:24.943Z,11.50
2019-03-03T13:15:00.022Z,11.60
2019-03-03T13:17:48.474Z,11.60
2019-03-03T13:20:19.774Z,11.60
2019-03-03T13:22:53.317Z,11.60
2019-03-03T13:25:27.102Z,11.70
2019-03-03T13:27:59.847Z,11.70
2019-03-03T13:30:47.035Z,11.70
2019-03-03T13:33:25.031Z,11.70
2019-03-03T13:36:20.289Z,11.80
2019-03-03T18:37:24.799Z,12.30
2019-03-03T18:40:09.866Z,12.30
2019-03-03T18:42:45.911Z,12.30
2019-03-03T18:45:23.605Z,12.20
2019-03-03T18:58:21.179Z,12.30
2019-03-03T19:22:47.748Z,12.40
2019-03-03T19:34:38.297Z,12.50
2019-03-03T19:40:54.196Z,12.50
2019-03-03T19:43:46.378Z,12.50
2019-03-03T19:46:28.121Z,12.50
2019-03-03T19:52:42.398Z,12.60
2019-03-03T19:55:50.846Z,12.60
2019-03-03T20:01:56.663Z,12.60
2019-03-03T20:05:07.156Z,12.50
2019-03-03T20:07:56.127Z,12.50
2019-03-03T20:11:03.987Z,12.60
2019-03-03T20:35:44.439Z,12.90
2019-03-03T20:39:05.287Z,12.90
2019-03-03T21:28:42.272Z,13.00
